Meredith C Reinauer — WDB3775 — position and weather

sailwx.info

Track history (hours):
 
Tides and Currents Weather Stations Pressure Air Temp Water Temp Dewpoint Dewpoint Depression Visibility Wind Speed Wind Dir Waves Ship Positions

Meredith C Reinauer

Owner: REINAUER TRANSPORTATION CO LLC, STATEN ISLAND, NY. More information available from US FCC via Universal Licensing System and Coast Guard Vessel Documentation Center.

Last reported at 2018-Apr-21 14:09 UTC. Time now 2018-Apr-24 23:06 UTC.
Position N 25°29' W 080°01'.

Length 178 m; draft 6.5 m.

Type: . MMSI: 366891140.

Date/timePositionNaut miles runAvg speedWind from/ knotsBaromVisibWave heightAir tempDewpointWater temp
2018-Apr-21 14:09N 25°29' W 080°01'2 6.9
2018-Apr-21 13:50N 25°31' W 080°01'2 7.2
2018-Apr-21 13:30N 25°34' W 080°01'4 8.8
2018-Apr-21 13:00N 25°38' W 080°01'5 9.1
2018-Apr-21 12:30N 25°42' W 080°01'5 9.3
2018-Apr-21 12:00N 25°47' W 080°01'5 9.5
2018-Apr-21 11:30N 25°52' W 080°01'5 9.4
2018-Apr-21 11:00N 25°56' W 080°01'5 9.2
2018-Apr-21 10:30N 26°01' W 080°01'5 9.3
2018-Apr-21 10:00N 26°06' W 080°01'5 9.3
2018-Apr-21 09:30N 26°10' W 080°01'5 9.1
2018-Apr-21 09:00N 26°15' W 080°00'5 9.1
2018-Apr-21 08:29N 26°20' W 080°00'4 9.1
2018-Apr-21 07:59N 26°24' W 079°60'28 8.4
2018-Apr-21 04:38N 26°52' W 079°58'1 7.3
2018-Apr-21 04:30N 26°53' W 079°58'4 7.2
2018-Apr-21 04:00N 26°57' W 079°58'4 7.5
2018-Apr-21 03:30N 27°00' W 079°59'  
2018-Apr-18 22:29N 34°01' W 076°40'12 9.1
2018-Apr-18 21:11N 34°09' W 076°29'2 9.5
2018-Apr-18 21:00N 34°10' W 076°27'25 9.7
2018-Apr-18 18:25N 34°28' W 076°07'410.1
2018-Apr-18 18:00N 34°31' W 076°03'510.0
2018-Apr-18 17:30N 34°35' W 075°59'317 9.9
2018-Apr-17 09:28N 39°37' W 074°03'510.1
2018-Apr-17 09:00N 39°42' W 074°00'46 9.6
2018-Apr-17 04:14N 40°27' W 073°53'2 8.6
2018-Apr-17 04:00N 40°29' W 073°54'510.3
2018-Apr-17 03:30N 40°31' W 073°60'510.3
2018-Apr-17 03:00N 40°36' W 074°03'3 6.3
2018-Apr-17 02:30N 40°39' W 074°03'0 0.4
2018-Apr-17 02:00N 40°39' W 074°03'0 0.0
2018-Apr-17 01:30N 40°39' W 074°03'0 0.1
2018-Apr-17 01:00N 40°39' W 074°03'0 0.0
2018-Apr-17 00:30N 40°39' W 074°03'0 0.1
2018-Apr-17 00:00N 40°39' W 074°03'0 0.0
2018-Apr-16 23:30N 40°39' W 074°03'0 0.0
2018-Apr-16 23:00N 40°39' W 074°03'0 0.0
2018-Apr-16 22:30N 40°39' W 074°03'0 0.3
2018-Apr-16 22:00N 40°39' W 074°03'0 0.1
2018-Apr-16 21:30N 40°39' W 074°03'0 0.1
2018-Apr-16 21:00N 40°39' W 074°03'0 0.0
2018-Apr-16 20:30N 40°39' W 074°03'0 0.0
2018-Apr-16 20:00N 40°39' W 074°03'2 4.2
2018-Apr-16 19:30N 40°39' W 074°06'4 8.2
2018-Apr-16 19:00N 40°39' W 074°11'4 6.8
2018-Apr-16 18:29N 40°35' W 074°12'3 6.5
2018-Apr-16 18:00N 40°33' W 074°15'1 0.1
2018-Apr-16 05:19N 40°32' W 074°15'1 4.6
2018-Apr-16 05:00N 40°33' W 074°14'4 7.4
2018-Apr-16 04:30N 40°37' W 074°12'4 7.0
2018-Apr-16 04:00N 40°39' W 074°08'0 0.8
2018-Apr-16 03:30N 40°38' W 074°08'0 0.0
2018-Apr-16 03:00N 40°38' W 074°08'0 0.0
2018-Apr-16 02:30N 40°38' W 074°08'0 0.0
2018-Apr-16 02:00N 40°38' W 074°08'0 0.0
2018-Apr-16 01:30N 40°38' W 074°08'0 0.0
2018-Apr-16 01:00N 40°38' W 074°08'0 0.0
2018-Apr-16 00:29N 40°38' W 074°08'0 0.0
2018-Apr-16 00:00N 40°38' W 074°08'0 0.0
2018-Apr-15 23:30N 40°38' W 074°08'0 0.0
2018-Apr-15 23:00N 40°38' W 074°08'0 0.0
2018-Apr-15 22:30N 40°38' W 074°08'0 0.0
2018-Apr-15 21:59N 40°38' W 074°08'0 0.0
2018-Apr-15 21:30N 40°38' W 074°08'0 0.0
2018-Apr-15 21:00N 40°38' W 074°08'0 0.0
2018-Apr-15 20:30N 40°38' W 074°08'0 0.0
2018-Apr-15 19:58N 40°38' W 074°08'0 0.0
2018-Apr-15 19:30N 40°38' W 074°08'0 0.0
2018-Apr-15 19:00N 40°38' W 074°08'0 0.0
2018-Apr-15 18:30N 40°38' W 074°08'0 0.0
2018-Apr-15 18:00N 40°38' W 074°08'0 0.0
2018-Apr-15 17:30N 40°38' W 074°08'3 5.1
2018-Apr-15 17:00N 40°39' W 074°11'1 1.3
2018-Apr-15 16:30N 40°38' W 074°12'0 0.0
2018-Apr-15 16:00N 40°38' W 074°12'0 0.0
2018-Apr-15 15:30N 40°38' W 074°12'0 0.0
2018-Apr-15 15:00N 40°38' W 074°12'0 0.0
2018-Apr-15 14:30N 40°38' W 074°12'0 0.0
2018-Apr-15 14:00N 40°38' W 074°12'0 0.0
2018-Apr-15 13:29N 40°38' W 074°12'0 0.0
2018-Apr-15 13:00N 40°38' W 074°12'0 0.0
2018-Apr-15 12:30N 40°38' W 074°12'0 0.0
2018-Apr-15 12:00N 40°38' W 074°12'2 4.5
2018-Apr-15 11:30N 40°39' W 074°09'1 1.7
2018-Apr-15 11:00N 40°39' W 074°08'0 0.1
2018-Apr-15 10:30N 40°38' W 074°08'0 0.0
2018-Apr-15 10:00N 40°38' W 074°08'0 0.0
2018-Apr-15 09:30N 40°38' W 074°08'0 0.0
2018-Apr-15 09:00N 40°38' W 074°08'0 0.0
2018-Apr-15 08:30N 40°38' W 074°08'0 0.0
2018-Apr-15 08:00N 40°38' W 074°08'0 0.0
2018-Apr-15 07:30N 40°38' W 074°08'0 0.0
2018-Apr-15 07:00N 40°38' W 074°08'0 0.0
2018-Apr-15 06:30N 40°38' W 074°08'0 0.0
2018-Apr-15 06:00N 40°38' W 074°08'0 0.0
2018-Apr-15 05:30N 40°38' W 074°08'0 0.0
2018-Apr-15 05:00N 40°38' W 074°08'0 0.0
2018-Apr-15 04:30N 40°38' W 074°08'1 1.1
2018-Apr-15 04:00N 40°39' W 074°07'5 9.5
2018-Apr-15 03:30N 40°40' W 074°01'0 0.2
2018-Apr-15 03:00N 40°40' W 074°01'0 0.0
2018-Apr-15 02:30N 40°40' W 074°01'0 0.0
2018-Apr-15 02:00N 40°40' W 074°01'0 0.0
2018-Apr-15 01:30N 40°40' W 074°01'0 0.0
2018-Apr-15 01:00N 40°40' W 074°01'0 0.0
2018-Apr-15 00:30N 40°40' W 074°01'1 1.2
2018-Apr-15 00:00N 40°40' W 074°02'5 9.7
2018-Apr-14 23:31N 40°39' W 074°08'0 0.1
2018-Apr-14 22:59N 40°38' W 074°08'0 0.0
2018-Apr-14 22:30N 40°38' W 074°08'0 0.0
2018-Apr-14 22:00N 40°38' W 074°08'0 0.0
2018-Apr-14 21:30N 40°38' W 074°08'0 0.0
2018-Apr-14 21:00N 40°38' W 074°08'0 0.0
2018-Apr-14 20:30N 40°38' W 074°08'0 0.0
2018-Apr-14 19:58N 40°38' W 074°08'0 0.0
2018-Apr-14 19:29N 40°38' W 074°08'0 0.0
2018-Apr-14 19:00N 40°38' W 074°08'0 0.0
2018-Apr-14 18:30N 40°38' W 074°08'0 0.0
2018-Apr-14 17:59N 40°38' W 074°08'0 0.0
2018-Apr-14 17:29N 40°38' W 074°08'0 0.0
2018-Apr-14 17:00N 40°38' W 074°08'0 0.0
2018-Apr-14 16:30N 40°38' W 074°08'0 0.0
2018-Apr-14 16:00N 40°38' W 074°08'0 0.0
2018-Apr-14 15:29N 40°38' W 074°08'0 0.0
2018-Apr-14 15:00N 40°38' W 074°08'0 0.0
2018-Apr-14 14:30N 40°38' W 074°08'0 0.0
2018-Apr-14 14:00N 40°38' W 074°08'0 0.0
2018-Apr-14 13:29N 40°38' W 074°08'0 0.0
2018-Apr-14 12:59N 40°38' W 074°08'0 0.0
2018-Apr-14 12:30N 40°38' W 074°08'0 0.0
2018-Apr-14 12:00N 40°38' W 074°08'0 0.0
2018-Apr-14 11:30N 40°38' W 074°08'0 0.0
2018-Apr-14 11:00N 40°38' W 074°08'0 0.0
2018-Apr-14 10:30N 40°38' W 074°08'0 0.0
2018-Apr-14 10:00N 40°38' W 074°08'0 0.0
2018-Apr-14 09:30N 40°38' W 074°08'0 0.0
2018-Apr-14 09:00N 40°38' W 074°08'0 0.0
2018-Apr-14 08:30N 40°38' W 074°08'0 0.0
2018-Apr-14 08:00N 40°38' W 074°08'0 0.0
2018-Apr-14 07:30N 40°38' W 074°08'0 0.0
2018-Apr-14 07:00N 40°38' W 074°08'0 0.0
2018-Apr-14 06:30N 40°38' W 074°08'0 0.0
2018-Apr-14 06:00N 40°38' W 074°08'2 3.8
2018-Apr-14 05:30N 40°39' W 074°10'4 7.4
2018-Apr-14 05:00N 40°35' W 074°12'4 1.4
2018-Apr-14 02:11N 40°32' W 074°15'0 0.5
2018-Apr-14 02:00N 40°32' W 074°15'0 0.2
2018-Apr-14 01:30N 40°32' W 074°15'3 5.4
2018-Apr-14 00:59N 40°34' W 074°13'4 7.9
2018-Apr-14 00:30N 40°38' W 074°12'2 3.9
2018-Apr-13 23:59N 40°38' W 074°09'0 0.2
2018-Apr-13 23:26N 40°38' W 074°09'0 0.0
2018-Apr-13 22:59N 40°38' W 074°09'0 0.0
2018-Apr-13 22:26N 40°38' W 074°10'0 0.0
2018-Apr-13 21:59N 40°38' W 074°09'0 0.1
2018-Apr-13 21:30N 40°38' W 074°09'1 2.4
2018-Apr-13 20:56N 40°38' W 074°08'0 0.0
2018-Apr-13 20:29N 40°38' W 074°08'0 0.0
2018-Apr-13 19:59N 40°38' W 074°08'0 0.0
2018-Apr-13 19:29N 40°38' W 074°08'0 0.0
2018-Apr-13 18:59N 40°38' W 074°08'0 0.0
2018-Apr-13 18:29N 40°38' W 074°08'0 0.0
2018-Apr-13 17:59N 40°38' W 074°08'0 0.0
2018-Apr-13 17:29N 40°38' W 074°08'0 0.0
2018-Apr-13 16:59N 40°38' W 074°08'0 0.0
2018-Apr-13 16:26N 40°38' W 074°08'0 0.0
2018-Apr-13 15:59N 40°38' W 074°08'0 0.0
2018-Apr-13 15:29N 40°38' W 074°08'0 0.0
2018-Apr-13 14:59N 40°38' W 074°08'0 0.0
2018-Apr-13 14:29N 40°38' W 074°08'0 0.0
2018-Apr-13 13:59N 40°38' W 074°08'0 0.0
2018-Apr-13 13:29N 40°38' W 074°08'0 0.0
2018-Apr-13 12:59N 40°38' W 074°08'0 0.0
2018-Apr-13 12:29N 40°38' W 074°08'0 0.0
2018-Apr-13 11:59N 40°38' W 074°08'1 2.6
2018-Apr-13 11:31N 40°38' W 074°09'0 0.3
2018-Apr-13 11:00N 40°38' W 074°10'0 0.0
2018-Apr-13 10:30N 40°38' W 074°09'1 2.1
2018-Apr-13 10:00N 40°39' W 074°08'4 8.2
2018-Apr-13 09:30N 40°40' W 074°03'1 1.7
2018-Apr-13 08:59N 40°40' W 074°02'0 0.1
2018-Apr-13 08:29N 40°40' W 074°02'0 0.2
2018-Apr-13 07:59N 40°40' W 074°02'0 0.1
2018-Apr-13 07:29N 40°40' W 074°02'0 0.1
2018-Apr-13 06:59N 40°40' W 074°02'0 0.0
2018-Apr-13 06:29N 40°40' W 074°02'0 0.0
2018-Apr-13 05:59N 40°40' W 074°02'0 0.0
2018-Apr-13 05:29N 40°40' W 074°02'0 0.0
2018-Apr-13 04:59N 40°40' W 074°02'0 0.0
2018-Apr-13 04:29N 40°40' W 074°02'0 0.1
2018-Apr-13 03:59N 40°40' W 074°02'0 0.1
2018-Apr-13 03:29N 40°40' W 074°02'0 0.1
2018-Apr-13 02:59N 40°40' W 074°02'0 0.0
2018-Apr-13 02:29N 40°40' W 074°02'0 0.2
2018-Apr-13 01:59N 40°40' W 074°02'0 0.3
2018-Apr-13 01:30N 40°40' W 074°02'4 7.6
2018-Apr-13 01:00N 40°43' W 073°58'4 8.9
2018-Apr-13 00:30N 40°47' W 073°56'4 8.3
2018-Apr-13 00:00N 40°48' W 073°51'4 7.2
2018-Apr-12 23:30N 40°50' W 073°47'4510.2
2018-Apr-12 19:04N 41°12' W 072°54'  
Track history (hours):
 
Tides and Currents Weather Stations Pressure Air Temp Water Temp Dewpoint Dewpoint Depression Visibility Wind Speed Wind Dir Waves Ship Positions

Meredith C Reinauer

Owner: REINAUER TRANSPORTATION CO LLC, STATEN ISLAND, NY. More information available from US FCC via Universal Licensing System and Coast Guard Vessel Documentation Center.

Last reported at 2018-Apr-21 14:09 UTC. Time now 2018-Apr-24 23:06 UTC.
Position N 25°29' W 080°01'.

Length 178 m; draft 6.5 m.

Type: . MMSI: 366891140.

Date/timePositionNaut miles runAvg speedWind from/ knotsBaromVisibWave heightAir tempDewpointWater temp
2018-Apr-21 14:09N 25°29' W 080°01'2 6.9
2018-Apr-21 13:50N 25°31' W 080°01'2 7.2
2018-Apr-21 13:30N 25°34' W 080°01'4 8.8
2018-Apr-21 13:00N 25°38' W 080°01'5 9.1
2018-Apr-21 12:30N 25°42' W 080°01'5 9.3
2018-Apr-21 12:00N 25°47' W 080°01'5 9.5
2018-Apr-21 11:30N 25°52' W 080°01'5 9.4
2018-Apr-21 11:00N 25°56' W 080°01'5 9.2
2018-Apr-21 10:30N 26°01' W 080°01'5 9.3
2018-Apr-21 10:00N 26°06' W 080°01'5 9.3
2018-Apr-21 09:30N 26°10' W 080°01'5 9.1
2018-Apr-21 09:00N 26°15' W 080°00'5 9.1
2018-Apr-21 08:29N 26°20' W 080°00'4 9.1
2018-Apr-21 07:59N 26°24' W 079°60'28 8.4
2018-Apr-21 04:38N 26°52' W 079°58'1 7.3
2018-Apr-21 04:30N 26°53' W 079°58'4 7.2
2018-Apr-21 04:00N 26°57' W 079°58'4 7.5
2018-Apr-21 03:30N 27°00' W 079°59'  
2018-Apr-18 22:29N 34°01' W 076°40'12 9.1
2018-Apr-18 21:11N 34°09' W 076°29'2 9.5
2018-Apr-18 21:00N 34°10' W 076°27'25 9.7
2018-Apr-18 18:25N 34°28' W 076°07'410.1
2018-Apr-18 18:00N 34°31' W 076°03'510.0
2018-Apr-18 17:30N 34°35' W 075°59'317 9.9
2018-Apr-17 09:28N 39°37' W 074°03'510.1
2018-Apr-17 09:00N 39°42' W 074°00'46 9.6
2018-Apr-17 04:14N 40°27' W 073°53'2 8.6
2018-Apr-17 04:00N 40°29' W 073°54'510.3
2018-Apr-17 03:30N 40°31' W 073°60'510.3
2018-Apr-17 03:00N 40°36' W 074°03'3 6.3
2018-Apr-17 02:30N 40°39' W 074°03'0 0.4
2018-Apr-17 02:00N 40°39' W 074°03'0 0.0
2018-Apr-17 01:30N 40°39' W 074°03'0 0.1
2018-Apr-17 01:00N 40°39' W 074°03'0 0.0
2018-Apr-17 00:30N 40°39' W 074°03'0 0.1
2018-Apr-17 00:00N 40°39' W 074°03'0 0.0
2018-Apr-16 23:30N 40°39' W 074°03'0 0.0
2018-Apr-16 23:00N 40°39' W 074°03'0 0.0
2018-Apr-16 22:30N 40°39' W 074°03'0 0.3
2018-Apr-16 22:00N 40°39' W 074°03'0 0.1
2018-Apr-16 21:30N 40°39' W 074°03'0 0.1
2018-Apr-16 21:00N 40°39' W 074°03'0 0.0
2018-Apr-16 20:30N 40°39' W 074°03'0 0.0
2018-Apr-16 20:00N 40°39' W 074°03'2 4.2
2018-Apr-16 19:30N 40°39' W 074°06'4 8.2
2018-Apr-16 19:00N 40°39' W 074°11'4 6.8
2018-Apr-16 18:29N 40°35' W 074°12'3 6.5
2018-Apr-16 18:00N 40°33' W 074°15'1 0.1
2018-Apr-16 05:19N 40°32' W 074°15'1 4.6
2018-Apr-16 05:00N 40°33' W 074°14'4 7.4
2018-Apr-16 04:30N 40°37' W 074°12'4 7.0
2018-Apr-16 04:00N 40°39' W 074°08'0 0.8
2018-Apr-16 03:30N 40°38' W 074°08'0 0.0
2018-Apr-16 03:00N 40°38' W 074°08'0 0.0
2018-Apr-16 02:30N 40°38' W 074°08'0 0.0
2018-Apr-16 02:00N 40°38' W 074°08'0 0.0
2018-Apr-16 01:30N 40°38' W 074°08'0 0.0
2018-Apr-16 01:00N 40°38' W 074°08'0 0.0
2018-Apr-16 00:29N 40°38' W 074°08'0 0.0
2018-Apr-16 00:00N 40°38' W 074°08'0 0.0
2018-Apr-15 23:30N 40°38' W 074°08'0 0.0
2018-Apr-15 23:00N 40°38' W 074°08'0 0.0
2018-Apr-15 22:30N 40°38' W 074°08'0 0.0
2018-Apr-15 21:59N 40°38' W 074°08'0 0.0
2018-Apr-15 21:30N 40°38' W 074°08'0 0.0
2018-Apr-15 21:00N 40°38' W 074°08'0 0.0
2018-Apr-15 20:30N 40°38' W 074°08'0 0.0
2018-Apr-15 19:58N 40°38' W 074°08'0 0.0
2018-Apr-15 19:30N 40°38' W 074°08'0 0.0
2018-Apr-15 19:00N 40°38' W 074°08'0 0.0
2018-Apr-15 18:30N 40°38' W 074°08'0 0.0
2018-Apr-15 18:00N 40°38' W 074°08'0 0.0
2018-Apr-15 17:30N 40°38' W 074°08'3 5.1
2018-Apr-15 17:00N 40°39' W 074°11'1 1.3
2018-Apr-15 16:30N 40°38' W 074°12'0 0.0
2018-Apr-15 16:00N 40°38' W 074°12'0 0.0
2018-Apr-15 15:30N 40°38' W 074°12'0 0.0
2018-Apr-15 15:00N 40°38' W 074°12'0 0.0
2018-Apr-15 14:30N 40°38' W 074°12'0 0.0
2018-Apr-15 14:00N 40°38' W 074°12'0 0.0
2018-Apr-15 13:29N 40°38' W 074°12'0 0.0
2018-Apr-15 13:00N 40°38' W 074°12'0 0.0
2018-Apr-15 12:30N 40°38' W 074°12'0 0.0
2018-Apr-15 12:00N 40°38' W 074°12'2 4.5
2018-Apr-15 11:30N 40°39' W 074°09'1 1.7
2018-Apr-15 11:00N 40°39' W 074°08'0 0.1
2018-Apr-15 10:30N 40°38' W 074°08'0 0.0
2018-Apr-15 10:00N 40°38' W 074°08'0 0.0
2018-Apr-15 09:30N 40°38' W 074°08'0 0.0
2018-Apr-15 09:00N 40°38' W 074°08'0 0.0
2018-Apr-15 08:30N 40°38' W 074°08'0 0.0
2018-Apr-15 08:00N 40°38' W 074°08'0 0.0
2018-Apr-15 07:30N 40°38' W 074°08'0 0.0
2018-Apr-15 07:00N 40°38' W 074°08'0 0.0
2018-Apr-15 06:30N 40°38' W 074°08'0 0.0
2018-Apr-15 06:00N 40°38' W 074°08'0 0.0
2018-Apr-15 05:30N 40°38' W 074°08'0 0.0
2018-Apr-15 05:00N 40°38' W 074°08'0 0.0
2018-Apr-15 04:30N 40°38' W 074°08'1 1.1
2018-Apr-15 04:00N 40°39' W 074°07'5 9.5
2018-Apr-15 03:30N 40°40' W 074°01'0 0.2
2018-Apr-15 03:00N 40°40' W 074°01'0 0.0
2018-Apr-15 02:30N 40°40' W 074°01'0 0.0
2018-Apr-15 02:00N 40°40' W 074°01'0 0.0
2018-Apr-15 01:30N 40°40' W 074°01'0 0.0
2018-Apr-15 01:00N 40°40' W 074°01'0 0.0
2018-Apr-15 00:30N 40°40' W 074°01'1 1.2
2018-Apr-15 00:00N 40°40' W 074°02'5 9.7
2018-Apr-14 23:31N 40°39' W 074°08'0 0.1
2018-Apr-14 22:59N 40°38' W 074°08'0 0.0
2018-Apr-14 22:30N 40°38' W 074°08'0 0.0
2018-Apr-14 22:00N 40°38' W 074°08'0 0.0
2018-Apr-14 21:30N 40°38' W 074°08'0 0.0
2018-Apr-14 21:00N 40°38' W 074°08'0 0.0
2018-Apr-14 20:30N 40°38' W 074°08'0 0.0
2018-Apr-14 19:58N 40°38' W 074°08'0 0.0
2018-Apr-14 19:29N 40°38' W 074°08'0 0.0
2018-Apr-14 19:00N 40°38' W 074°08'0 0.0
2018-Apr-14 18:30N 40°38' W 074°08'0 0.0
2018-Apr-14 17:59N 40°38' W 074°08'0 0.0
2018-Apr-14 17:29N 40°38' W 074°08'0 0.0
2018-Apr-14 17:00N 40°38' W 074°08'0 0.0
2018-Apr-14 16:30N 40°38' W 074°08'0 0.0
2018-Apr-14 16:00N 40°38' W 074°08'0 0.0
2018-Apr-14 15:29N 40°38' W 074°08'0 0.0
2018-Apr-14 15:00N 40°38' W 074°08'0 0.0
2018-Apr-14 14:30N 40°38' W 074°08'0 0.0
2018-Apr-14 14:00N 40°38' W 074°08'0 0.0
2018-Apr-14 13:29N 40°38' W 074°08'0 0.0
2018-Apr-14 12:59N 40°38' W 074°08'0 0.0
2018-Apr-14 12:30N 40°38' W 074°08'0 0.0
2018-Apr-14 12:00N 40°38' W 074°08'0 0.0
2018-Apr-14 11:30N 40°38' W 074°08'0 0.0
2018-Apr-14 11:00N 40°38' W 074°08'0 0.0
2018-Apr-14 10:30N 40°38' W 074°08'0 0.0
2018-Apr-14 10:00N 40°38' W 074°08'0 0.0
2018-Apr-14 09:30N 40°38' W 074°08'0 0.0
2018-Apr-14 09:00N 40°38' W 074°08'0 0.0
2018-Apr-14 08:30N 40°38' W 074°08'0 0.0
2018-Apr-14 08:00N 40°38' W 074°08'0 0.0
2018-Apr-14 07:30N 40°38' W 074°08'0 0.0
2018-Apr-14 07:00N 40°38' W 074°08'0 0.0
2018-Apr-14 06:30N 40°38' W 074°08'0 0.0
2018-Apr-14 06:00N 40°38' W 074°08'2 3.8
2018-Apr-14 05:30N 40°39' W 074°10'4 7.4
2018-Apr-14 05:00N 40°35' W 074°12'4 1.4
2018-Apr-14 02:11N 40°32' W 074°15'0 0.5
2018-Apr-14 02:00N 40°32' W 074°15'0 0.2
2018-Apr-14 01:30N 40°32' W 074°15'3 5.4
2018-Apr-14 00:59N 40°34' W 074°13'4 7.9
2018-Apr-14 00:30N 40°38' W 074°12'2 3.9
2018-Apr-13 23:59N 40°38' W 074°09'0 0.2
2018-Apr-13 23:26N 40°38' W 074°09'0 0.0
2018-Apr-13 22:59N 40°38' W 074°09'0 0.0
2018-Apr-13 22:26N 40°38' W 074°10'0 0.0
2018-Apr-13 21:59N 40°38' W 074°09'0 0.1
2018-Apr-13 21:30N 40°38' W 074°09'1 2.4
2018-Apr-13 20:56N 40°38' W 074°08'0 0.0
2018-Apr-13 20:29N 40°38' W 074°08'0 0.0
2018-Apr-13 19:59N 40°38' W 074°08'0 0.0
2018-Apr-13 19:29N 40°38' W 074°08'0 0.0
2018-Apr-13 18:59N 40°38' W 074°08'0 0.0
2018-Apr-13 18:29N 40°38' W 074°08'0 0.0
2018-Apr-13 17:59N 40°38' W 074°08'0 0.0
2018-Apr-13 17:29N 40°38' W 074°08'0 0.0
2018-Apr-13 16:59N 40°38' W 074°08'0 0.0
2018-Apr-13 16:26N 40°38' W 074°08'0 0.0
2018-Apr-13 15:59N 40°38' W 074°08'0 0.0
2018-Apr-13 15:29N 40°38' W 074°08'0 0.0
2018-Apr-13 14:59N 40°38' W 074°08'0 0.0
2018-Apr-13 14:29N 40°38' W 074°08'0 0.0
2018-Apr-13 13:59N 40°38' W 074°08'0 0.0
2018-Apr-13 13:29N 40°38' W 074°08'0 0.0
2018-Apr-13 12:59N 40°38' W 074°08'0 0.0
2018-Apr-13 12:29N 40°38' W 074°08'0 0.0
2018-Apr-13 11:59N 40°38' W 074°08'1 2.6
2018-Apr-13 11:31N 40°38' W 074°09'0 0.3
2018-Apr-13 11:00N 40°38' W 074°10'0 0.0
2018-Apr-13 10:30N 40°38' W 074°09'1 2.1
2018-Apr-13 10:00N 40°39' W 074°08'4 8.2
2018-Apr-13 09:30N 40°40' W 074°03'1 1.7
2018-Apr-13 08:59N 40°40' W 074°02'0 0.1
2018-Apr-13 08:29N 40°40' W 074°02'0 0.2
2018-Apr-13 07:59N 40°40' W 074°02'0 0.1
2018-Apr-13 07:29N 40°40' W 074°02'0 0.1
2018-Apr-13 06:59N 40°40' W 074°02'0 0.0
2018-Apr-13 06:29N 40°40' W 074°02'0 0.0
2018-Apr-13 05:59N 40°40' W 074°02'0 0.0
2018-Apr-13 05:29N 40°40' W 074°02'0 0.0
2018-Apr-13 04:59N 40°40' W 074°02'0 0.0
2018-Apr-13 04:29N 40°40' W 074°02'0 0.1
2018-Apr-13 03:59N 40°40' W 074°02'0 0.1
2018-Apr-13 03:29N 40°40' W 074°02'0 0.1
2018-Apr-13 02:59N 40°40' W 074°02'0 0.0
2018-Apr-13 02:29N 40°40' W 074°02'0 0.2
2018-Apr-13 01:59N 40°40' W 074°02'0 0.3
2018-Apr-13 01:30N 40°40' W 074°02'4 7.6
2018-Apr-13 01:00N 40°43' W 073°58'4 8.9
2018-Apr-13 00:30N 40°47' W 073°56'4 8.3
2018-Apr-13 00:00N 40°48' W 073°51'4 7.2
2018-Apr-12 23:30N 40°50' W 073°47'4510.2
2018-Apr-12 19:04N 41°12' W 072°54'  

Dump ship's entire track history